createdAt,value
2019-03-01T00:01:25.962Z,138.20
2019-03-01T00:04:22.378Z,138.70
2019-03-01T00:07:12.036Z,137.97
2019-03-01T00:10:19.516Z,137.43
2019-03-01T00:13:29.450Z,137.35
2019-03-01T00:16:50.795Z,137.90
2019-03-01T00:20:14.052Z,136.65
2019-03-01T00:23:17.778Z,137.92
2019-03-01T00:26:12.985Z,138.45
2019-03-01T00:29:22.833Z,137.43
2019-03-01T00:32:20.865Z,137.88
2019-03-01T00:35:20.251Z,137.43
2019-03-01T00:38:38.679Z,138.50
2019-03-01T00:41:59.325Z,138.60
2019-03-01T00:44:40.888Z,140.40
2019-03-01T00:47:14.951Z,139.30
2019-03-01T00:49:42.072Z,136.40
2019-03-01T00:52:10.151Z,138.05
2019-03-01T00:54:37.254Z,138.30
2019-03-01T00:57:06.363Z,137.90
2019-03-01T00:59:35.294Z,138.30
2019-03-01T01:02:04.323Z,138.07
2019-03-01T01:04:32.545Z,136.72
2019-03-01T01:06:59.650Z,138.28
2019-03-01T01:09:27.687Z,138.60
2019-03-01T01:11:54.809Z,138.20
2019-03-01T01:14:22.093Z,137.10
2019-03-01T01:16:49.240Z,137.32
2019-03-01T01:19:16.343Z,137.57
2019-03-01T01:21:43.448Z,137.92
2019-03-01T01:24:10.556Z,137.28
2019-03-01T01:26:37.685Z,137.25
2019-03-01T01:29:04.999Z,137.77
2019-03-01T01:31:35.525Z,139.85
2019-03-01T01:34:04.040Z,137.03
2019-03-01T01:36:32.522Z,137.37
2019-03-01T01:39:00.737Z,137.95
2019-03-01T01:41:27.871Z,137.97
2019-03-01T01:43:55.018Z,137.82
2019-03-01T01:46:22.104Z,137.30
2019-03-01T01:48:53.386Z,139.18
2019-03-01T01:51:20.497Z,138.50
2019-03-01T01:53:48.030Z,139.88
2019-03-01T01:56:18.423Z,138.82
2019-03-01T01:58:45.684Z,137.25
2019-03-01T02:01:12.854Z,137.62
2019-03-01T02:03:40.096Z,137.22
2019-03-01T02:06:07.309Z,137.82
2019-03-01T02:08:34.529Z,137.65
2019-03-01T02:11:01.777Z,137.00
2019-03-01T02:13:28.897Z,138.80
2019-03-01T02:15:56.021Z,137.75
2019-03-01T02:18:28.854Z,137.85
2019-03-01T02:20:56.153Z,138.62
2019-03-01T02:23:25.165Z,138.20
2019-03-01T02:25:52.803Z,139.07
2019-03-01T02:28:20.024Z,138.47
2019-03-01T02:30:48.569Z,137.90
2019-03-01T02:33:16.017Z,137.80
2019-03-01T02:35:45.921Z,138.28
2019-03-01T02:38:13.111Z,138.85
2019-03-01T02:40:40.239Z,139.15
2019-03-01T02:43:07.331Z,138.60
2019-03-01T02:45:34.501Z,139.65
2019-03-01T02:48:01.836Z,138.62
2019-03-01T02:50:32.551Z,139.28
2019-03-01T02:52:59.700Z,140.30
2019-03-01T02:55:28.685Z,138.35
2019-03-01T02:57:55.844Z,140.05
2019-03-01T03:00:27.164Z,140.28
2019-03-01T03:02:56.275Z,139.92
2019-03-01T03:05:23.411Z,139.97
2019-03-01T03:07:55.248Z,140.00
2019-03-01T03:10:24.811Z,139.52
2019-03-01T03:13:03.790Z,138.88
2019-03-01T03:15:33.623Z,138.20
2019-03-01T03:18:00.726Z,138.82
2019-03-01T03:20:27.833Z,140.20
2019-03-01T03:22:55.001Z,139.72
2019-03-01T03:25:22.169Z,139.10
2019-03-01T03:27:49.258Z,137.85
2019-03-01T03:30:16.619Z,139.45
2019-03-01T03:32:46.399Z,139.35
2019-03-01T03:35:13.558Z,138.62
2019-03-01T03:37:40.769Z,139.12
2019-03-01T03:40:08.459Z,138.92
2019-03-01T03:42:35.693Z,138.47
2019-03-01T03:45:03.661Z,138.75
2019-03-01T03:47:31.160Z,139.37
2019-03-01T03:49:59.985Z,139.32
2019-03-01T03:52:28.860Z,138.22
2019-03-01T03:54:55.987Z,138.92
2019-03-01T03:57:23.134Z,139.18
2019-03-01T03:59:50.284Z,140.82
2019-03-01T04:02:17.423Z,139.10
2019-03-01T04:04:44.516Z,140.28
2019-03-01T04:07:11.776Z,140.97
2019-03-01T04:09:38.894Z,139.20
2019-03-01T04:12:06.029Z,139.72
2019-03-01T04:14:33.156Z,139.92
2019-03-01T04:17:00.353Z,139.35
2019-03-01T04:19:27.791Z,139.82
2019-03-01T04:21:54.905Z,140.35
2019-03-01T04:24:22.016Z,138.70
2019-03-01T04:26:49.118Z,139.90
2019-03-01T04:29:16.276Z,138.85
2019-03-01T04:31:43.385Z,138.82
2019-03-01T04:34:10.522Z,139.30
2019-03-01T04:36:37.671Z,139.50
2019-03-01T04:39:05.938Z,138.03
2019-03-01T04:41:33.518Z,138.80
2019-03-01T04:44:00.732Z,140.25
2019-03-01T04:46:27.829Z,139.28
2019-03-01T04:48:54.934Z,139.07
2019-03-01T04:51:22.123Z,139.25
2019-03-01T04:53:49.270Z,140.80
2019-03-01T04:56:16.383Z,137.65
2019-03-01T04:58:43.518Z,136.77
2019-03-01T05:01:11.908Z,137.85
2019-03-01T05:03:38.988Z,137.60
2019-03-01T05:06:07.891Z,139.72
2019-03-01T05:08:34.990Z,138.20
2019-03-01T05:11:02.132Z,138.40
2019-03-01T05:13:29.264Z,141.00
2019-03-01T05:15:56.380Z,138.68
2019-03-01T05:18:23.506Z,138.50
2019-03-01T05:20:50.617Z,138.88
2019-03-01T05:23:17.757Z,139.22
2019-03-01T05:25:44.843Z,138.12
2019-03-01T05:28:11.991Z,138.07
2019-03-01T05:30:39.103Z,138.12
2019-03-01T05:33:06.354Z,138.92
2019-03-01T05:35:33.494Z,138.10
2019-03-01T05:38:00.600Z,138.28
2019-03-01T05:40:27.799Z,140.05
2019-03-01T05:42:57.252Z,138.82
2019-03-01T05:45:24.829Z,139.05
2019-03-01T05:47:52.135Z,139.35
2019-03-01T05:50:19.395Z,139.45
2019-03-01T05:52:48.362Z,140.12
2019-03-01T05:55:15.502Z,140.65
2019-03-01T05:58:19.560Z,138.57
2019-03-01T06:00:46.654Z,140.80
2019-03-01T06:03:44.204Z,140.52
2019-03-01T06:06:13.299Z,138.05
2019-03-01T06:09:15.320Z,140.35
2019-03-01T06:12:14.830Z,139.72
2019-03-01T06:15:28.452Z,140.30
2019-03-01T06:18:40.323Z,139.03
2019-03-01T06:21:48.329Z,138.57
2019-03-01T06:24:40.531Z,139.18
2019-03-01T06:27:50.810Z,140.65
2019-03-01T06:30:38.817Z,139.00
2019-03-01T06:33:44.968Z,139.45
2019-03-01T06:36:22.214Z,138.07
2019-03-01T06:39:49.871Z,138.88
2019-03-01T06:42:57.094Z,138.40
2019-03-01T06:46:21.438Z,138.00
2019-03-01T06:48:55.950Z,138.75
2019-03-01T06:51:29.083Z,138.18
2019-03-01T06:53:55.270Z,137.52
2019-03-01T06:56:22.485Z,137.80
2019-03-01T06:58:52.901Z,138.00
2019-03-01T07:01:25.388Z,137.68
2019-03-01T07:03:57.205Z,139.62
2019-03-01T07:06:24.367Z,136.55
2019-03-01T07:08:51.471Z,137.00
2019-03-01T07:11:18.617Z,140.55
2019-03-01T07:13:45.721Z,140.00
2019-03-01T07:16:12.847Z,138.90
2019-03-01T07:18:39.999Z,140.03
2019-03-01T07:21:07.150Z,138.52
2019-03-01T07:23:42.585Z,140.55
2019-03-01T07:26:12.420Z,138.92
2019-03-01T07:28:39.864Z,139.20
2019-03-01T07:31:07.248Z,140.20
2019-03-01T07:33:34.533Z,139.20
2019-03-01T07:36:01.887Z,138.50
2019-03-01T07:38:29.267Z,138.97
2019-03-01T07:40:56.441Z,140.37
2019-03-01T07:43:23.573Z,139.90
2019-03-01T07:45:50.787Z,142.15
2019-03-01T07:48:19.124Z,138.55
2019-03-01T07:50:46.301Z,138.40
2019-03-01T07:53:13.607Z,141.37
2019-03-01T07:55:40.723Z,139.77
2019-03-01T07:58:07.815Z,139.65
2019-03-01T08:00:34.969Z,140.88
2019-03-01T08:03:02.073Z,139.25
2019-03-01T08:05:29.238Z,141.00
2019-03-01T08:07:59.710Z,139.65
2019-03-01T08:10:25.676Z,140.82
2019-03-01T08:12:52.771Z,140.15
2019-03-01T08:15:20.021Z,138.43
2019-03-01T08:17:47.148Z,138.40
2019-03-01T08:20:14.934Z,150.68
2019-03-01T08:22:48.513Z,140.43
2019-03-01T08:25:11.465Z,140.90
2019-03-01T08:27:41.963Z,139.80
2019-03-01T08:30:11.295Z,140.52
2019-03-01T08:32:38.803Z,139.00
2019-03-01T08:35:07.557Z,139.65
2019-03-01T08:37:35.064Z,138.82
2019-03-01T08:40:02.177Z,139.80
2019-03-01T08:42:32.713Z,140.92
2019-03-01T08:44:59.771Z,140.75
2019-03-01T08:47:29.195Z,138.50
2019-03-01T08:49:56.338Z,138.03
2019-03-01T08:52:23.460Z,140.52
2019-03-01T08:54:50.892Z,140.90
2019-03-01T08:57:18.013Z,139.50
2019-03-01T08:59:45.258Z,139.75
2019-03-01T09:02:12.385Z,140.43
2019-03-01T09:04:39.523Z,138.97
2019-03-01T09:07:06.690Z,138.80
2019-03-01T09:09:33.919Z,138.25
2019-03-01T09:12:01.088Z,139.05
2019-03-01T09:14:28.499Z,140.20
2019-03-01T09:16:55.584Z,140.70
2019-03-01T09:19:25.416Z,139.28
2019-03-01T09:21:51.891Z,138.00
2019-03-01T09:24:18.996Z,137.95
2019-03-01T09:26:46.152Z,138.50
2019-03-01T09:29:18.378Z,140.20
2019-03-01T09:31:46.741Z,136.75
2019-03-01T09:34:19.116Z,138.68
2019-03-01T09:36:54.957Z,138.40
2019-03-01T09:39:20.908Z,137.07
2019-03-01T09:41:48.023Z,140.97
2019-03-01T09:44:15.248Z,138.05
2019-03-01T09:46:42.614Z,137.30
2019-03-01T09:49:12.014Z,139.05
2019-03-01T09:51:39.418Z,137.07
2019-03-01T09:54:09.424Z,136.32
2019-03-01T09:56:36.678Z,138.10
2019-03-01T09:59:03.825Z,136.90
2019-03-01T10:01:31.085Z,135.93
2019-03-01T10:03:58.791Z,136.03
2019-03-01T10:06:25.939Z,136.05
2019-03-01T10:08:53.071Z,136.70
2019-03-01T10:11:20.263Z,136.88
2019-03-01T10:13:47.370Z,137.20
2019-03-01T10:16:14.589Z,137.05
2019-03-01T10:18:42.030Z,136.68
2019-03-01T10:21:09.253Z,137.15
2019-03-01T10:23:36.395Z,135.10
2019-03-01T10:26:03.701Z,136.40
2019-03-01T10:28:30.865Z,135.03
2019-03-01T10:30:58.134Z,136.95
2019-03-01T10:33:25.249Z,136.10
2019-03-01T10:35:52.360Z,136.05
2019-03-01T10:38:19.637Z,139.37
2019-03-01T10:40:46.748Z,137.37
2019-03-01T10:43:14.940Z,139.82
2019-03-01T10:45:42.072Z,140.07
2019-03-01T10:48:11.320Z,139.43
2019-03-01T10:50:38.449Z,141.07
2019-03-01T10:53:05.743Z,139.05
2019-03-01T10:55:33.514Z,140.05
2019-03-01T10:58:01.068Z,136.37
2019-03-01T11:00:28.501Z,135.00
2019-03-01T11:02:55.600Z,135.52
2019-03-01T11:05:23.351Z,136.50
2019-03-01T11:07:51.296Z,135.82
2019-03-01T11:10:20.811Z,138.57
2019-03-01T11:12:47.936Z,136.95
2019-03-01T11:15:15.222Z,136.47
2019-03-01T11:17:42.338Z,137.35
2019-03-01T11:20:10.437Z,137.30
2019-03-01T11:22:37.615Z,138.18
2019-03-01T11:25:06.216Z,140.35
2019-03-01T11:27:33.332Z,138.12
2019-03-01T11:30:00.463Z,138.47
2019-03-01T11:32:27.561Z,138.97
2019-03-01T11:34:58.367Z,141.85
2019-03-01T11:37:28.511Z,143.40
2019-03-01T11:39:55.632Z,138.50
2019-03-01T11:42:22.731Z,138.22
2019-03-01T11:44:49.936Z,139.47
2019-03-01T11:47:17.065Z,139.85
2019-03-01T11:49:44.204Z,139.85
2019-03-01T11:52:11.362Z,141.73
2019-03-01T11:54:38.505Z,138.95
2019-03-01T11:57:05.816Z,137.60
2019-03-01T11:59:33.009Z,142.35
2019-03-01T12:02:17.862Z,143.55
2019-03-01T12:05:05.989Z,140.75
2019-03-01T12:07:37.326Z,139.77
2019-03-01T12:10:07.137Z,141.15
2019-03-01T12:12:34.409Z,139.97
2019-03-01T12:15:01.467Z,141.15
2019-03-01T12:17:28.714Z,143.05
2019-03-01T12:19:55.922Z,142.30
2019-03-01T12:22:23.041Z,142.98
2019-03-01T12:24:50.272Z,142.20
2019-03-01T12:27:17.374Z,145.35
2019-03-01T12:29:44.498Z,145.68
2019-03-01T12:32:11.627Z,141.77
2019-03-01T12:34:40.034Z,147.35
2019-03-01T12:37:07.136Z,147.17
2019-03-01T12:39:34.329Z,145.85
2019-03-01T12:42:01.472Z,146.47
2019-03-01T12:44:28.605Z,145.50
2019-03-01T12:46:56.018Z,147.85
2019-03-01T12:49:23.176Z,147.43
2019-03-01T12:51:50.378Z,150.97
2019-03-01T12:54:17.520Z,150.00
2019-03-01T12:56:44.804Z,151.30
2019-03-01T12:59:11.926Z,146.28
2019-03-01T13:01:39.052Z,150.03
2019-03-01T13:04:06.160Z,152.45
2019-03-01T13:06:35.379Z,153.05
2019-03-01T13:09:04.122Z,151.42
2019-03-01T13:11:33.129Z,149.05
2019-03-01T13:14:00.340Z,150.42
2019-03-01T13:16:33.004Z,156.57
2019-03-01T13:22:43.659Z,156.55
2019-03-01T13:25:11.927Z,157.15
2019-03-01T13:27:39.156Z,159.22
2019-03-01T13:30:09.328Z,156.90
2019-03-01T13:32:36.575Z,159.22
2019-03-01T13:35:04.788Z,158.97
2019-03-01T13:37:32.041Z,158.15
2019-03-01T13:39:59.166Z,156.43
2019-03-01T13:42:29.573Z,158.47
2019-03-01T13:44:56.711Z,159.63
2019-03-01T13:47:23.831Z,159.82
2019-03-01T13:49:51.013Z,161.95
2019-03-01T13:52:18.179Z,160.63
2019-03-01T13:54:46.199Z,164.13
2019-03-01T13:57:14.600Z,159.60
2019-03-01T13:59:43.943Z,161.90
2019-03-01T14:02:10.852Z,163.50
2019-03-01T14:04:40.342Z,162.65
2019-03-01T14:07:07.088Z,161.77
2019-03-01T14:09:34.510Z,157.20
2019-03-01T14:12:01.883Z,165.20
2019-03-01T14:14:29.280Z,160.40
2019-03-01T14:16:56.711Z,157.78
2019-03-01T14:19:23.829Z,164.05
2019-03-01T14:21:50.971Z,156.28
2019-03-01T14:24:18.188Z,166.43
2019-03-01T14:26:45.351Z,162.95
2019-03-01T14:29:12.831Z,155.52
2019-03-01T14:31:42.946Z,163.35
2019-03-01T14:34:11.606Z,160.57
2019-03-01T14:36:43.075Z,163.15
2019-03-01T14:39:15.609Z,156.00
2019-03-01T14:41:42.816Z,160.30
2019-03-01T14:44:09.991Z,167.10
2019-03-01T14:46:39.374Z,167.50
2019-03-01T14:49:06.710Z,167.98
2019-03-01T14:51:34.011Z,160.67
2019-03-01T14:54:01.413Z,160.60
2019-03-01T14:56:34.720Z,155.27
2019-03-01T14:59:07.392Z,160.03
2019-03-01T15:01:43.267Z,168.82
2019-03-01T15:04:10.457Z,161.62
2019-03-01T15:06:37.939Z,157.70
2019-03-01T15:09:06.635Z,163.00
2019-03-01T15:11:35.706Z,154.07
2019-03-01T15:14:02.806Z,162.53
2019-03-01T15:16:29.932Z,153.65
2019-03-01T15:18:57.256Z,158.50
2019-03-01T15:21:24.364Z,166.90
2019-03-01T15:23:56.343Z,159.35
2019-03-01T15:26:23.103Z,164.20
2019-03-01T15:28:55.288Z,160.00
2019-03-01T15:31:23.745Z,156.32
2019-03-01T15:33:50.897Z,163.18
2019-03-01T15:36:19.163Z,167.65
2019-03-01T15:38:46.299Z,164.00
2019-03-01T15:41:13.253Z,163.92
2019-03-01T15:43:40.206Z,162.25
2019-03-01T15:46:07.210Z,166.03
2019-03-01T15:48:37.692Z,163.82
2019-03-01T15:51:03.435Z,166.22
2019-03-01T15:53:30.505Z,161.20
2019-03-01T15:55:57.461Z,170.95
2019-03-01T15:58:24.416Z,162.85
2019-03-01T16:00:51.387Z,156.90
2019-03-01T16:03:18.336Z,159.07
2019-03-01T16:05:45.920Z,159.27
2019-03-01T16:08:13.032Z,174.97
2019-03-01T16:10:40.027Z,156.50
2019-03-01T16:13:08.423Z,157.82
2019-03-01T16:15:38.783Z,162.70
2019-03-01T16:18:04.741Z,171.40
2019-03-01T16:20:31.991Z,160.12
2019-03-01T16:22:58.991Z,161.57
2019-03-01T16:25:25.958Z,165.90
2019-03-01T16:27:54.368Z,156.18
2019-03-01T16:30:21.980Z,162.20
2019-03-01T16:32:50.412Z,160.55
2019-03-01T16:35:18.942Z,159.75
2019-03-01T16:37:47.895Z,161.10
2019-03-01T16:40:14.891Z,161.32
2019-03-01T16:42:42.045Z,155.05
2019-03-01T16:45:09.935Z,160.30
2019-03-01T16:47:38.279Z,162.47
2019-03-01T16:50:09.919Z,161.60
2019-03-01T16:52:36.617Z,160.88
2019-03-01T16:55:04.290Z,159.12
2019-03-01T16:57:31.440Z,161.50
2019-03-01T16:59:58.444Z,159.97
2019-03-01T17:02:25.530Z,160.72
2019-03-01T17:04:52.498Z,162.77
2019-03-01T17:07:21.512Z,162.03
2019-03-01T17:09:51.378Z,157.85
2019-03-01T17:12:17.540Z,162.27
2019-03-01T17:14:44.630Z,158.12
2019-03-01T17:17:11.587Z,157.72
2019-03-01T17:19:39.424Z,168.20
2019-03-01T17:22:06.598Z,167.62
2019-03-01T17:24:33.572Z,163.57
2019-03-01T17:27:01.973Z,164.37
2019-03-01T17:29:31.549Z,168.55
2019-03-01T17:31:58.798Z,159.20
2019-03-01T17:34:29.300Z,165.85
2019-03-01T17:36:56.090Z,162.37
2019-03-01T17:39:25.126Z,161.80
2019-03-01T17:41:51.899Z,162.72
2019-03-01T17:44:18.876Z,159.80
2019-03-01T17:46:45.817Z,165.25
2019-03-01T17:49:12.776Z,168.17
2019-03-01T17:51:39.762Z,163.50
2019-03-01T17:54:07.764Z,158.78
2019-03-01T17:56:36.618Z,164.90
2019-03-01T17:59:03.712Z,163.00
2019-03-01T18:01:30.698Z,162.55
2019-03-01T18:04:01.606Z,162.10
2019-03-01T18:06:26.844Z,161.90
2019-03-01T18:08:53.843Z,165.73
2019-03-01T18:11:20.800Z,161.28
2019-03-01T18:13:47.837Z,156.45
2019-03-01T18:16:14.777Z,156.40
2019-03-01T18:18:42.541Z,157.03
2019-03-01T18:21:10.202Z,154.95
2019-03-01T18:23:39.056Z,157.80
2019-03-01T18:26:06.084Z,156.32
2019-03-01T18:28:33.146Z,154.93
2019-03-01T18:31:00.135Z,155.15
2019-03-01T18:33:27.094Z,155.37
2019-03-01T18:39:31.780Z,155.05
2019-03-01T18:42:02.452Z,150.00
2019-03-01T18:44:30.029Z,150.85
2019-03-01T18:46:57.035Z,155.18
2019-03-01T18:49:24.019Z,150.27
2019-03-01T18:51:50.967Z,151.72
2019-03-01T18:54:18.399Z,148.00
2019-03-01T18:56:45.374Z,151.40
2019-03-01T18:59:12.349Z,152.00
2019-03-01T19:01:42.827Z,152.02
2019-03-01T19:04:08.771Z,152.68
2019-03-01T19:06:36.860Z,148.87
2019-03-01T19:09:05.856Z,149.02
2019-03-01T19:11:34.693Z,151.37
2019-03-01T19:14:02.992Z,151.57
2019-03-01T19:16:30.093Z,149.72
2019-03-01T19:18:57.161Z,149.85
2019-03-01T19:21:24.112Z,148.70
2019-03-01T19:23:51.097Z,149.05
2019-03-01T19:26:18.133Z,148.30
2019-03-01T19:28:45.068Z,149.72
2019-03-01T19:31:12.048Z,148.13
2019-03-01T19:33:41.498Z,146.68
2019-03-01T19:36:07.914Z,147.22
2019-03-01T19:38:35.086Z,147.07
2019-03-01T19:41:02.066Z,145.35
2019-03-01T19:43:29.132Z,144.05
2019-03-01T19:45:56.080Z,144.35
2019-03-01T19:48:23.064Z,143.32
2019-03-01T19:50:50.208Z,144.65
2019-03-01T19:53:17.275Z,142.93
2019-03-01T19:55:47.249Z,142.62
2019-03-01T19:58:13.182Z,144.47
2019-03-01T20:00:42.622Z,141.97
2019-03-01T20:03:10.071Z,141.57
2019-03-01T20:05:38.902Z,140.60
2019-03-01T20:08:05.866Z,140.62
2019-03-01T20:10:32.857Z,139.85
2019-03-01T20:12:59.845Z,141.90
2019-03-01T20:15:27.607Z,142.80
2019-03-01T20:17:54.631Z,140.73
2019-03-01T20:20:21.823Z,139.72
2019-03-01T20:22:50.505Z,140.25
2019-03-01T20:25:17.739Z,141.65
2019-03-01T20:27:44.754Z,140.05
2019-03-01T20:30:17.162Z,141.43
2019-03-01T20:32:47.541Z,139.47
2019-03-01T20:35:13.890Z,138.12
2019-03-01T20:37:41.035Z,140.05
2019-03-01T20:40:09.798Z,141.32
2019-03-01T20:42:36.809Z,139.07
2019-03-01T20:45:05.099Z,142.53
2019-03-01T20:47:33.997Z,139.62
2019-03-01T20:50:00.944Z,142.25
2019-03-01T20:52:27.892Z,142.00
2019-03-01T20:54:57.741Z,142.75
2019-03-01T20:57:26.726Z,142.15
2019-03-01T20:59:52.695Z,141.18
2019-03-01T21:02:19.686Z,141.20
2019-03-01T21:04:53.217Z,144.07
2019-03-01T21:07:16.506Z,145.00
2019-03-01T21:09:43.705Z,142.43
2019-03-01T21:12:11.931Z,145.17
2019-03-01T21:14:38.908Z,143.20
2019-03-01T21:17:05.864Z,145.07
2019-03-01T21:19:32.810Z,143.60
2019-03-01T21:22:01.529Z,141.43
2019-03-01T21:24:31.979Z,143.13
2019-03-01T21:26:58.745Z,142.62
2019-03-01T21:29:25.703Z,144.13
2019-03-01T21:31:52.701Z,144.70
2019-03-01T21:34:19.667Z,143.85
2019-03-01T21:36:46.655Z,145.25
2019-03-01T21:39:13.634Z,146.93
2019-03-01T21:41:41.465Z,147.20
2019-03-01T21:44:10.579Z,146.60
2019-03-01T21:46:38.337Z,146.02
2019-03-01T21:49:05.285Z,146.82
2019-03-01T21:51:34.840Z,144.95
2019-03-01T21:54:02.039Z,142.80
2019-03-01T21:56:30.294Z,138.47
2019-03-01T21:58:57.322Z,144.82
2019-03-01T22:01:24.284Z,144.40
2019-03-01T22:03:51.230Z,144.72
2019-03-01T22:06:20.645Z,147.15
2019-03-01T22:08:48.655Z,147.53
2019-03-01T22:11:15.947Z,144.32
2019-03-01T22:13:42.886Z,145.10
2019-03-01T22:16:09.866Z,143.75
2019-03-01T22:18:37.801Z,143.93
2019-03-01T22:21:04.755Z,146.93
2019-03-01T22:23:31.762Z,145.38
2019-03-01T22:25:58.717Z,145.55
2019-03-01T22:28:25.677Z,148.02
2019-03-01T22:30:52.661Z,146.53
2019-03-01T22:33:20.763Z,147.82
2019-03-01T22:35:48.475Z,147.57
2019-03-01T22:38:15.558Z,147.78
2019-03-01T22:40:42.511Z,148.35
2019-03-01T22:43:09.449Z,148.07
2019-03-01T22:45:36.459Z,147.53
2019-03-01T22:48:03.428Z,146.68
2019-03-01T22:50:30.385Z,146.80
2019-03-01T22:52:57.375Z,147.07
2019-03-01T22:55:24.331Z,148.40
2019-03-01T22:57:51.280Z,148.17
2019-03-01T23:01:20.471Z,148.95
2019-03-01T23:03:51.601Z,147.35
2019-03-01T23:06:19.173Z,148.13
2019-03-01T23:08:46.168Z,147.80
2019-03-01T23:11:13.111Z,150.55
2019-03-01T23:13:40.045Z,150.07
2019-03-01T23:16:07.039Z,150.27
2019-03-01T23:18:34.026Z,150.00
2019-03-01T23:21:01.926Z,149.65
2019-03-01T23:23:29.110Z,149.30
2019-03-01T23:25:56.534Z,151.53
2019-03-01T23:28:23.479Z,151.00
2019-03-01T23:30:50.481Z,150.50
2019-03-01T23:33:17.409Z,152.50
2019-03-01T23:35:44.478Z,151.47
2019-03-01T23:38:11.640Z,148.72
2019-03-01T23:40:40.316Z,149.85
2019-03-01T23:43:07.274Z,148.68
2019-03-01T23:45:34.251Z,148.82
2019-03-01T23:48:01.187Z,149.07
2019-03-01T23:50:28.145Z,151.78
2019-03-01T23:52:58.785Z,148.87
2019-03-01T23:55:24.039Z,149.65
2019-03-01T23:57:51.003Z,149.50
